Time;durP1;ratioP1;P1;durP2;ratioP2;P2;SDS_P1;SDS_P2;PMS_P1;PMS_P2;Temp;Humidity;BMP_temperature;BMP_pressure;BME280_temperature;BME280_humidity;BME280_pressure;Samples;Min_cycle;Max_cycle;Signal;HPM_P1;HPM_P2
2021/08/08 00:00:46;;;;;;;1.20;1.20;;;;;;;22.56;100.00;96935.69;4987337;28;20558;-69
2021/08/08 00:03:13;;;;;;;1.27;1.17;;;;;;;22.62;100.00;96940.91;4988782;28;20214;-67
2021/08/08 00:05:40;;;;;;;1.10;1.10;;;;;;;22.60;100.00;96940.03;4988524;28;20623;-70
2021/08/08 00:08:06;;;;;;;1.10;1.10;;;;;;;22.62;100.00;96948.59;4988438;28;20273;-70
2021/08/08 00:10:33;;;;;;;1.10;1.10;;;;;;;22.50;100.00;96924.47;4988096;28;20310;-71
2021/08/08 00:12:59;;;;;;;1.40;1.30;;;;;;;22.62;100.00;96947.75;5004318;28;20730;-68
2021/08/08 00:15:26;;;;;;;1.20;1.10;;;;;;;22.63;100.00;96952.03;4988461;28;20257;-68
2021/08/08 00:17:53;;;;;;;1.00;1.00;;;;;;;22.62;100.00;96955.44;4989083;28;20230;-68
2021/08/08 00:20:19;;;;;;;1.00;1.00;;;;;;;22.61;100.00;96961.38;4988056;28;20686;-73
2021/08/08 00:22:46;;;;;;;1.27;1.17;;;;;;;22.59;100.00;96965.63;4985327;28;20238;-68
2021/08/08 00:25:12;;;;;;;1.33;1.10;;;;;;;22.50;100.00;96953.50;4987082;28;20211;-68
2021/08/08 00:27:39;;;;;;;2.70;1.20;;;;;;;22.53;100.00;96966.38;4988190;28;20242;-70
2021/08/08 00:30:06;;;;;;;1.87;1.20;;;;;;;22.54;100.00;96968.13;4986459;28;20676;-68
2021/08/08 00:32:33;;;;;;;1.00;0.97;;;;;;;22.54;100.00;96968.13;4988504;28;20294;-68
2021/08/08 00:34:59;;;;;;;1.07;1.07;;;;;;;22.46;100.00;96950.84;4985578;28;20207;-70
2021/08/08 00:37:26;;;;;;;1.10;1.10;;;;;;;22.44;100.00;96945.69;4992898;28;20627;-68
2021/08/08 00:39:53;;;;;;;2.50;1.10;;;;;;;22.54;100.00;96963.00;4987559;28;20773;-70
2021/08/08 00:42:19;;;;;;;1.20;1.20;;;;;;;22.55;100.00;96964.72;4988152;28;20249;-68
2021/08/08 00:44:46;;;;;;;2.37;1.17;;;;;;;22.55;100.00;96951.91;4986765;28;20269;-68
2021/08/08 00:47:13;;;;;;;1.10;1.10;;;;;;;22.55;100.00;96944.22;4987446;28;20748;-70
2021/08/08 00:49:39;;;;;;;1.30;1.20;;;;;;;22.54;100.00;96946.75;5011538;28;20666;-70
2021/08/08 00:52:06;;;;;;;1.10;1.10;;;;;;;22.49;100.00;96951.78;4987769;28;20212;-68
2021/08/08 00:54:33;;;;;;;1.87;1.10;;;;;;;22.50;100.00;96944.97;4995567;28;20203;-68
2021/08/08 00:57:00;;;;;;;1.23;1.13;;;;;;;22.57;100.00;96955.38;4988260;28;20235;-68
2021/08/08 00:59:26;;;;;;;1.10;1.10;;;;;;;22.54;100.00;96949.31;4984932;28;21035;-68
2021/08/08 01:01:53;;;;;;;1.50;1.10;;;;;;;22.59;100.00;96963.91;4984246;28;20203;-68
2021/08/08 01:04:27;;;;;;;1.50;1.20;;;;;;;22.49;100.00;96936.41;4984858;28;20219;-70
2021/08/08 01:06:58;;;;;;;1.87;1.03;;;;;;;22.59;100.00;96945.13;4990176;28;20298;-68
2021/08/08 01:09:25;;;;;;;1.10;1.10;;;;;;;22.60;100.00;96945.16;4986787;28;20226;-68
2021/08/08 01:11:52;;;;;;;0.90;0.90;;;;;;;22.60;100.00;96937.47;4994572;28;20286;-73
2021/08/08 01:14:18;;;;;;;1.30;1.20;;;;;;;22.60;100.00;96931.50;4987211;28;20325;-68
2021/08/08 01:16:45;;;;;;;1.20;1.10;;;;;;;22.56;100.00;96919.47;4977987;28;20242;-70
2021/08/08 01:19:12;;;;;;;1.33;1.23;;;;;;;22.61;100.00;96930.63;4987006;28;20298;-64
2021/08/08 01:21:39;;;;;;;1.63;1.30;;;;;;;22.30;100.00;96872.94;5007838;28;20747;-69
2021/08/08 01:24:06;;;;;;;1.03;1.03;;;;;;;22.56;100.00;96899.00;4991888;28;20238;-68
2021/08/08 01:26:32;;;;;;;1.20;1.20;;;;;;;22.61;100.00;96921.25;4987122;28;20238;-67
2021/08/08 01:28:59;;;;;;;1.20;1.20;;;;;;;22.54;100.00;96921.16;4983355;28;20250;-66
2021/08/08 01:31:26;;;;;;;1.10;1.07;;;;;;;22.53;100.00;96925.41;4973147;28;20305;-70
2021/08/08 01:33:53;;;;;;;1.00;1.00;;;;;;;22.58;100.00;96938.28;4994301;28;20221;-68
2021/08/08 01:36:19;;;;;;;1.03;1.03;;;;;;;22.54;100.00;96931.38;4987225;28;20752;-71
2021/08/08 01:39:01;;;;;;;0.80;0.80;;;;;;;22.62;100.00;96952.88;5009128;28;20230;-70
2021/08/08 01:41:37;;;;;;;1.00;1.00;;;;;;;22.62;100.00;96960.56;4985832;28;20325;-70
2021/08/08 01:44:03;;;;;;;0.90;0.90;;;;;;;22.61;100.00;96957.13;5010941;28;20293;-67
2021/08/08 01:46:31;;;;;;;1.00;1.00;;;;;;;22.60;100.00;96959.66;4985533;28;20246;-69
2021/08/08 01:48:58;;;;;;;1.10;1.00;;;;;;;22.62;100.00;96969.09;4986677;28;20309;-68
2021/08/08 01:51:26;;;;;;;0.90;0.90;;;;;;;22.62;100.00;96971.63;4986805;28;20309;-68
2021/08/08 01:53:52;;;;;;;1.20;1.20;;;;;;;22.54;100.00;96962.13;4986009;28;20270;-71
2021/08/08 01:56:19;;;;;;;1.00;1.00;;;;;;;22.62;100.00;96976.75;4991509;28;20250;-67
2021/08/08 01:58:45;;;;;;;1.07;1.07;;;;;;;22.30;100.00;96911.34;4995730;28;20235;-69
2021/08/08 02:01:12;;;;;;;1.00;1.00;;;;;;;22.48;100.00;96931.25;4993756;28;20226;-70
2021/08/08 02:03:39;;;;;;;1.57;1.10;;;;;;;22.63;100.00;96959.72;4994901;28;20254;-71
2021/08/08 02:06:07;;;;;;;1.13;1.10;;;;;;;22.61;100.00;96951.13;4989010;28;20234;-70
2021/08/08 02:08:34;;;;;;;1.10;1.10;;;;;;;22.59;100.00;96961.34;4990725;28;20199;-70
2021/08/08 02:11:00;;;;;;;1.00;1.00;;;;;;;22.57;100.00;96973.28;4989086;28;20226;-64
2021/08/08 02:13:27;;;;;;;1.00;1.00;;;;;;;22.57;100.00;96982.66;4990407;28;20772;-70
2021/08/08 02:15:54;;;;;;;1.10;1.10;;;;;;;22.50;100.00;96976.56;4990591;28;20261;-68
2021/08/08 02:18:21;;;;;;;1.67;1.10;;;;;;;22.55;100.00;96984.31;4990013;28;20253;-71
2021/08/08 02:20:47;;;;;;;1.10;1.10;;;;;;;22.52;100.00;96985.16;4989961;28;20310;-70
2021/08/08 02:23:14;;;;;;;0.90;0.90;;;;;;;22.53;100.00;96988.56;4990149;28;20249;-68
2021/08/08 02:25:41;;;;;;;1.07;1.03;;;;;;;22.51;100.00;96985.13;4990500;28;20302;-69
2021/08/08 02:28:07;;;;;;;1.00;1.00;;;;;;;22.50;100.00;96988.50;4990280;28;20253;-71
2021/08/08 02:30:35;;;;;;;0.93;0.93;;;;;;;22.54;100.00;96988.59;4988699;28;20602;-68
2021/08/08 02:33:01;;;;;;;1.20;1.20;;;;;;;22.54;100.00;96990.28;4988744;28;20211;-68
2021/08/08 02:35:28;;;;;;;1.10;1.10;;;;;;;22.55;100.00;96985.19;4990145;28;20238;-68
2021/08/08 02:37:54;;;;;;;1.10;1.10;;;;;;;22.57;100.00;96998.03;4990287;28;20238;-68
2021/08/08 02:40:21;;;;;;;1.10;1.00;;;;;;;22.21;100.00;96934.22;5014508;22;20612;-68
2021/08/08 02:42:48;;;;;;;1.10;1.10;;;;;;;22.57;100.00;97006.59;4987579;28;20234;-67
2021/08/08 02:45:14;;;;;;;1.10;1.10;;;;;;;22.57;100.00;97009.16;4993351;28;20630;-67
2021/08/08 02:47:41;;;;;;;1.10;1.10;;;;;;;22.59;100.00;97014.28;4991162;28;20699;-67
2021/08/08 02:50:08;;;;;;;0.97;0.97;;;;;;;22.58;100.00;97023.66;4997631;28;20305;-67
2021/08/08 02:52:38;;;;;;;0.93;0.93;;;;;;;22.59;100.00;97025.38;4985624;28;20210;-68
2021/08/08 02:55:04;;;;;;;1.40;1.00;;;;;;;22.59;100.00;97025.38;4980078;28;20294;-67
2021/08/08 02:57:31;;;;;;;1.10;1.10;;;;;;;22.59;100.00;97029.66;4986352;28;20290;-68
2021/08/08 02:59:57;;;;;;;1.00;1.00;;;;;;;22.59;100.00;97034.78;4978864;28;20250;-67
2021/08/08 03:02:24;;;;;;;1.00;1.00;;;;;;;22.59;100.00;97038.19;4983190;28;20227;-66
2021/08/08 03:04:51;;;;;;;1.07;1.07;;;;;;;22.59;100.00;97056.09;4984645;28;20274;-67
2021/08/08 03:07:17;;;;;;;0.90;0.90;;;;;;;22.61;100.00;97061.25;4981972;28;20246;-66
2021/08/08 03:09:44;;;;;;;1.10;1.10;;;;;;;22.60;100.00;97062.97;4985030;28;20258;-67
2021/08/08 03:12:10;;;;;;;1.00;1.00;;;;;;;22.61;100.00;97068.94;4978308;28;20306;-66
2021/08/08 03:14:37;;;;;;;0.97;0.97;;;;;;;22.60;100.00;97062.97;4982216;28;20302;-67
2021/08/08 03:17:03;;;;;;;0.97;0.97;;;;;;;22.60;100.00;97064.66;4982825;28;20310;-68
2021/08/08 03:19:30;;;;;;;0.90;0.90;;;;;;;22.60;100.00;97064.66;4982832;28;20678;-66
2021/08/08 03:21:57;;;;;;;1.00;1.00;;;;;;;22.60;100.00;97068.09;4983668;28;20263;-67
2021/08/08 03:24:23;;;;;;;1.10;1.10;;;;;;;22.61;100.00;97074.06;4981556;28;20633;-67
2021/08/08 03:26:50;;;;;;;1.63;1.20;;;;;;;22.61;100.00;97086.88;4983871;28;20298;-66
2021/08/08 03:29:16;;;;;;;0.93;0.93;;;;;;;22.60;100.00;97080.03;4979249;28;20325;-67
2021/08/08 03:31:43;;;;;;;1.10;1.00;;;;;;;22.61;100.00;97071.50;4986242;28;20326;-68
2021/08/08 03:34:10;;;;;;;1.20;1.10;;;;;;;22.61;100.00;97071.50;4981607;28;20664;-67
2021/08/08 03:36:36;;;;;;;1.00;1.00;;;;;;;22.60;100.00;97078.34;4980951;28;20655;-67
2021/08/08 03:39:03;;;;;;;0.90;0.90;;;;;;;22.61;100.00;97080.06;4982508;28;20339;-68
2021/08/08 03:41:30;;;;;;;1.03;1.03;;;;;;;22.60;100.00;97086.03;4981541;28;20282;-67
2021/08/08 03:43:56;;;;;;;1.00;1.00;;;;;;;22.61;100.00;97089.44;4983288;28;20243;-67
2021/08/08 03:46:23;;;;;;;1.07;1.07;;;;;;;22.61;100.00;97094.56;4979924;28;20235;-67
2021/08/08 03:48:50;;;;;;;1.10;1.10;;;;;;;22.61;100.00;97092.88;4985089;28;20207;-67
2021/08/08 03:51:16;;;;;;;1.20;1.10;;;;;;;22.61;100.00;97097.13;4981093;28;20674;-67
2021/08/08 03:53:43;;;;;;;1.20;1.20;;;;;;;22.60;100.00;97100.53;4982232;28;20691;-67
2021/08/08 03:56:09;;;;;;;1.17;1.10;;;;;;;22.58;100.00;97108.19;4984060;28;20254;-66
2021/08/08 03:58:36;;;;;;;1.27;1.17;;;;;;;22.57;100.00;97111.59;4980960;28;20235;-66
2021/08/08 04:01:02;;;;;;;1.00;1.00;;;;;;;22.55;100.00;97115.81;4984149;28;20250;-67
2021/08/08 04:03:29;;;;;;;1.23;1.00;;;;;;;22.54;100.00;97118.34;4980950;28;20215;-67
2021/08/08 04:05:56;;;;;;;1.20;1.10;;;;;;;22.54;100.00;97123.47;4982644;28;20237;-66
2021/08/08 04:08:23;;;;;;;0.80;0.80;;;;;;;22.52;100.00;97136.22;4980899;28;20237;-67
2021/08/08 04:10:49;;;;;;;1.00;1.00;;;;;;;22.52;100.00;97138.78;4981502;28;20353;-67
2021/08/08 04:13:16;;;;;;;1.10;1.00;;;;;;;22.53;100.00;97132.00;4979780;28;20740;-67
2021/08/08 04:15:42;;;;;;;0.90;0.90;;;;;;;22.53;100.00;97135.38;4980594;28;20298;-67
2021/08/08 04:18:12;;;;;;;1.00;1.00;;;;;;;22.54;100.00;97138.81;4983295;28;20218;-66
2021/08/08 04:20:42;;;;;;;1.00;1.00;;;;;;;22.54;100.00;97144.81;4977072;28;20654;-67
2021/08/08 04:23:10;;;;;;;1.00;1.00;;;;;;;22.55;100.00;97145.66;4975590;28;20242;-67
2021/08/08 04:25:39;;;;;;;1.10;1.10;;;;;;;22.54;100.00;97139.69;4977232;28;20198;-67
2021/08/08 04:28:06;;;;;;;0.97;0.97;;;;;;;22.55;100.00;97123.50;4982250;28;20735;-68
2021/08/08 04:30:34;;;;;;;0.93;0.93;;;;;;;22.56;100.00;97135.44;4982040;28;20266;-67
2021/08/08 04:33:01;;;;;;;1.07;1.00;;;;;;;22.51;100.00;97126.84;4981551;28;20311;-68
2021/08/08 04:35:29;;;;;;;1.10;1.10;;;;;;;22.56;100.00;97135.44;4979795;28;20298;-67
2021/08/08 04:37:55;;;;;;;1.13;1.13;;;;;;;22.57;100.00;97132.06;4981506;28;20712;-67
2021/08/08 04:40:23;;;;;;;0.90;0.90;;;;;;;22.58;100.00;97140.59;4981040;28;20257;-67
2021/08/08 04:42:49;;;;;;;1.53;1.00;;;;;;;22.58;100.00;97143.16;4979891;28;20274;-67
2021/08/08 04:45:16;;;;;;;0.90;0.90;;;;;;;22.57;100.00;97147.44;4982158;28;20234;-67
2021/08/08 04:47:42;;;;;;;1.33;1.23;;;;;;;22.58;100.00;97155.97;4983160;28;20629;-66
2021/08/08 04:50:09;;;;;;;1.00;1.00;;;;;;;22.58;100.00;97159.41;4984410;28;20732;-66
2021/08/08 04:52:37;;;;;;;1.07;1.07;;;;;;;22.58;100.00;97161.09;4979010;28;20245;-67
2021/08/08 04:55:04;;;;;;;1.53;0.80;;;;;;;22.59;100.00;97156.00;4980692;28;20635;-66
2021/08/08 04:57:30;;;;;;;1.00;1.00;;;;;;;22.59;100.00;97160.28;4980733;28;20225;-66
2021/08/08 04:59:57;;;;;;;1.10;1.00;;;;;;;22.59;100.00;97157.72;4979528;28;20239;-67
2021/08/08 05:02:24;;;;;;;1.30;1.20;;;;;;;22.59;100.00;97150.88;4983635;28;20269;-66
2021/08/08 05:04:50;;;;;;;1.00;1.00;;;;;;;22.55;100.00;97153.34;4979782;28;20225;-66
2021/08/08 05:07:17;;;;;;;1.77;1.10;;;;;;;22.59;100.00;97158.56;4982757;28;20692;-66
2021/08/08 05:09:44;;;;;;;1.00;1.00;;;;;;;22.60;100.00;97159.44;4979389;28;20254;-67
2021/08/08 05:12:10;;;;;;;0.80;0.80;;;;;;;22.60;100.00;97164.56;4980881;28;20262;-66
2021/08/08 05:14:38;;;;;;;1.00;1.00;;;;;;;22.60;100.00;97167.13;4979031;28;20672;-67
2021/08/08 05:17:05;;;;;;;1.03;1.03;;;;;;;22.60;100.00;97172.25;4979205;28;20218;-67
2021/08/08 05:19:32;;;;;;;1.03;1.00;;;;;;;22.60;100.00;97172.25;4983988;28;20234;-67
2021/08/08 05:21:58;;;;;;;0.90;0.90;;;;;;;22.60;100.00;97178.25;4978238;28;20720;-66
2021/08/08 05:24:25;;;;;;;1.00;1.00;;;;;;;22.60;100.00;97185.03;4983841;28;20206;-67
2021/08/08 05:26:53;;;;;;;1.10;1.00;;;;;;;22.59;100.00;97184.16;4978136;28;20230;-67
2021/08/08 05:29:20;;;;;;;1.00;1.00;;;;;;;22.60;100.00;97195.28;4982230;28;20368;-67
2021/08/08 05:31:46;;;;;;;0.90;0.90;;;;;;;22.60;100.00;97191.03;4982752;28;20246;-67
2021/08/08 05:34:13;;;;;;;1.00;1.00;;;;;;;22.60;100.00;97187.59;4980530;28;20265;-67
2021/08/08 05:36:40;;;;;;;0.97;0.97;;;;;;;22.60;100.00;97185.03;4986714;28;20238;-67
2021/08/08 05:39:07;;;;;;;1.87;0.97;;;;;;;22.59;100.00;97183.34;4982093;28;20298;-66
2021/08/08 05:41:33;;;;;;;0.90;0.90;;;;;;;22.58;100.00;97181.59;4987935;28;20232;-67
2021/08/08 05:44:00;;;;;;;0.93;0.93;;;;;;;22.56;100.00;97179.00;4981390;28;20302;-67
2021/08/08 05:46:26;;;;;;;0.87;0.87;;;;;;;22.55;100.00;97171.28;4987086;28;20662;-67
2021/08/08 05:48:53;;;;;;;1.00;1.00;;;;;;;22.53;100.00;97175.53;4987912;28;20298;-67
2021/08/08 05:51:19;;;;;;;0.80;0.80;;;;;;;22.52;100.00;97178.91;4983236;28;21000;-67
2021/08/08 05:53:53;;;;;;;1.33;1.07;;;;;;;22.51;100.00;97183.19;4984334;28;20209;-66
2021/08/08 05:56:20;;;;;;;0.90;0.90;;;;;;;22.50;100.00;97184.00;4983212;28;20298;-67
2021/08/08 05:58:46;;;;;;;1.00;1.00;;;;;;;22.51;100.00;97188.28;4983318;28;20553;-67
2021/08/08 06:01:13;;;;;;;0.80;0.80;;;;;;;22.53;100.00;97190.88;4985916;28;20258;-67
2021/08/08 06:03:40;;;;;;;1.10;1.10;;;;;;;22.52;100.00;97194.25;4982339;28;20559;-66
2021/08/08 06:06:09;;;;;;;0.87;0.87;;;;;;;22.52;100.00;97192.56;4978579;28;20353;-67
2021/08/08 06:08:36;;;;;;;1.33;1.20;;;;;;;22.48;100.00;97188.19;4982371;28;20297;-67
2021/08/08 06:11:03;;;;;;;0.83;0.83;;;;;;;22.53;100.00;97191.72;4968602;28;20301;-67
2021/08/08 06:13:30;;;;;;;0.90;0.90;;;;;;;22.54;100.00;97196.03;4980743;28;20302;-67
2021/08/08 06:15:57;;;;;;;0.80;0.80;;;;;;;22.54;100.00;97205.41;4983402;28;20234;-68
2021/08/08 06:18:23;;;;;;;1.10;0.80;;;;;;;22.55;100.00;97202.00;4983763;28;20210;-67
2021/08/08 06:20:50;;;;;;;1.00;1.00;;;;;;;22.56;100.00;97219.13;4983296;28;20257;-66
2021/08/08 06:23:17;;;;;;;1.07;0.97;;;;;;;22.52;100.00;97195.13;4985113;28;20407;-68
2021/08/08 06:25:43;;;;;;;0.90;0.90;;;;;;;22.56;100.00;97206.31;4984747;28;20505;-68
2021/08/08 06:28:10;;;;;;;0.80;0.80;;;;;;;22.57;100.00;97213.16;4985698;28;20242;-68
2021/08/08 06:30:38;;;;;;;1.00;1.00;;;;;;;22.58;100.00;97212.31;4982066;28;20238;-67
2021/08/08 06:33:05;;;;;;;0.90;0.90;;;;;;;22.57;100.00;97208.03;4986640;28;20231;-67
2021/08/08 06:35:32;;;;;;;0.93;0.93;;;;;;;22.57;100.00;97203.78;4982974;28;20246;-67
2021/08/08 06:37:58;;;;;;;1.00;1.00;;;;;;;22.58;100.00;97207.19;4976830;28;20250;-68
2021/08/08 06:40:25;;;;;;;1.13;0.90;;;;;;;22.58;100.00;97205.50;4983068;28;20314;-67
2021/08/08 06:42:51;;;;;;;0.87;0.87;;;;;;;22.58;100.00;97200.38;4982271;28;20234;-67
2021/08/08 06:45:18;;;;;;;0.90;0.90;;;;;;;22.57;100.00;97203.78;4984531;28;20289;-67
2021/08/08 06:47:44;;;;;;;1.00;1.00;;;;;;;22.58;100.00;97200.38;4982282;28;20745;-68
2021/08/08 06:50:11;;;;;;;1.00;0.97;;;;;;;22.58;100.00;97195.25;4986557;28;20233;-67
2021/08/08 06:52:38;;;;;;;0.90;0.90;;;;;;;22.58;100.00;97196.94;4983101;28;20286;-66
2021/08/08 06:55:05;;;;;;;1.27;1.00;;;;;;;22.58;100.00;97202.94;4984714;28;20622;-67
2021/08/08 06:57:31;;;;;;;0.90;0.90;;;;;;;22.58;100.00;97205.50;4982084;28;20693;-67
2021/08/08 06:59:58;;;;;;;0.90;0.90;;;;;;;22.58;100.00;97210.63;4981707;28;20752;-67
2021/08/08 07:02:25;;;;;;;1.00;1.00;;;;;;;22.58;100.00;97208.06;4985140;28;20618;-67
2021/08/08 07:04:51;;;;;;;5.47;1.00;;;;;;;22.58;100.00;97212.31;4984094;28;20210;-66
2021/08/08 07:07:18;;;;;;;0.93;0.93;;;;;;;22.59;100.00;97225.16;4988130;28;20273;-67
2021/08/08 07:09:44;;;;;;;0.90;0.90;;;;;;;22.59;100.00;97217.47;4984485;28;20241;-67
2021/08/08 07:12:11;;;;;;;1.03;1.03;;;;;;;22.59;100.00;97232.00;4985440;28;20246;-65
2021/08/08 07:14:38;;;;;;;0.80;0.80;;;;;;;22.59;100.00;97234.56;4984682;28;20222;-67
2021/08/08 07:17:04;;;;;;;1.00;1.00;;;;;;;22.59;100.00;97237.13;4984320;28;20642;-67
2021/08/08 07:19:31;;;;;;;0.90;0.90;;;;;;;22.59;100.00;97232.84;4988928;28;20207;-67
2021/08/08 07:21:58;;;;;;;0.80;0.80;;;;;;;22.59;100.00;97232.84;4983057;28;20701;-66
2021/08/08 07:24:24;;;;;;;1.10;1.10;;;;;;;22.59;100.00;97232.00;4988042;28;20293;-67
2021/08/08 07:26:51;;;;;;;1.10;1.00;;;;;;;22.58;100.00;97231.13;4982959;28;20740;-67
2021/08/08 07:29:18;;;;;;;1.00;1.00;;;;;;;22.58;100.00;97227.69;4987006;28;20239;-67
2021/08/08 07:31:53;;;;;;;0.93;0.83;;;;;;;22.56;100.00;97226.81;4985415;28;20231;-67
2021/08/08 07:34:21;;;;;;;0.80;0.80;;;;;;;22.54;100.00;97229.34;4984875;28;20210;-67
2021/08/08 07:36:47;;;;;;;1.10;1.00;;;;;;;22.53;100.00;97221.63;4987288;28;20699;-67
2021/08/08 07:39:14;;;;;;;0.90;0.90;;;;;;;22.52;100.00;97228.44;4983032;28;20585;-67
2021/08/08 07:41:41;;;;;;;0.90;0.90;;;;;;;22.51;100.00;97226.72;4988148;28;20330;-67
2021/08/08 07:44:07;;;;;;;1.00;1.00;;;;;;;22.50;100.00;97242.88;4982091;28;20235;-66
2021/08/08 07:46:34;;;;;;;1.00;1.00;;;;;;;22.51;100.00;97252.31;4988823;28;20294;-67
2021/08/08 07:49:00;;;;;;;1.20;1.10;;;;;;;22.51;100.00;97249.75;4987467;28;20789;-67
2021/08/08 07:51:27;;;;;;;0.80;0.80;;;;;;;22.52;100.00;97260.84;4983891;28;20266;-66
2021/08/08 07:53:54;;;;;;;0.90;0.90;;;;;;;22.53;100.00;97254.91;4985103;28;20239;-67
2021/08/08 07:56:21;;;;;;;0.90;0.90;;;;;;;22.53;100.00;97257.47;4984070;28;20677;-67
2021/08/08 07:58:47;;;;;;;0.90;0.90;;;;;;;22.54;100.00;97254.94;4983060;28;20329;-68
2021/08/08 08:01:14;;;;;;;0.90;0.90;;;;;;;22.54;100.00;97251.50;4986557;28;20219;-66
2021/08/08 08:03:41;;;;;;;0.80;0.80;;;;;;;22.55;100.00;97246.41;4983037;28;20202;-67
2021/08/08 08:06:07;;;;;;;0.90;0.90;;;;;;;22.56;100.00;97249.84;4987135;28;20241;-67
2021/08/08 08:08:34;;;;;;;1.57;1.00;;;;;;;22.55;100.00;97254.09;4983498;28;20214;-67
2021/08/08 08:11:01;;;;;;;1.00;1.00;;;;;;;22.56;100.00;97244.72;4984996;28;20306;-67
2021/08/08 08:13:27;;;;;;;0.90;0.90;;;;;;;22.57;100.00;97246.44;4983239;28;20239;-67
2021/08/08 08:15:54;;;;;;;1.43;1.10;;;;;;;22.57;100.00;97249.00;4983570;28;20247;-66
2021/08/08 08:18:20;;;;;;;1.00;1.00;;;;;;;22.57;100.00;97249.00;4985261;28;20207;-68
2021/08/08 08:20:47;;;;;;;1.00;1.00;;;;;;;22.57;100.00;97249.88;4983200;28;20305;-67
2021/08/08 08:23:14;;;;;;;0.83;0.83;;;;;;;22.57;100.00;97252.44;4986491;28;20613;-67
2021/08/08 08:25:40;;;;;;;0.90;0.90;;;;;;;22.58;100.00;97245.59;4981824;28;20290;-67
2021/08/08 08:28:07;;;;;;;0.80;0.80;;;;;;;22.59;100.00;97245.63;4985750;28;20203;-67
2021/08/08 08:30:33;;;;;;;1.27;0.90;;;;;;;22.58;100.00;97254.16;4984821;28;20332;-68
2021/08/08 08:33:04;;;;;;;0.90;0.90;;;;;;;22.59;100.00;97257.59;4986888;28;20230;-67
2021/08/08 08:35:40;;;;;;;0.90;0.90;;;;;;;22.59;100.00;97257.59;4983671;28;20286;-67
2021/08/08 08:38:06;;;;;;;1.20;1.10;;;;;;;22.59;100.00;97253.31;4985216;28;20286;-66
2021/08/08 08:43:14;;;;;;;0.90;0.90;;;;;;;22.59;100.00;97249.91;4988104;28;20222;-65
2021/08/08 08:45:42;;;;;;;1.00;1.00;;;;;;;22.50;100.00;97240.31;4983193;28;20680;-67
2021/08/08 08:48:09;;;;;;;0.90;0.90;;;;;;;22.14;100.00;97179.78;4989853;28;20241;-67
2021/08/08 08:50:36;;;;;;;0.90;0.90;;;;;;;22.51;100.00;97242.06;4997020;28;20235;-67
2021/08/08 08:53:03;;;;;;;0.90;0.90;;;;;;;22.58;100.00;97246.47;4976328;28;20207;-67
2021/08/08 08:55:29;;;;;;;0.90;0.90;;;;;;;22.59;100.00;97248.19;4984983;28;20257;-67
2021/08/08 08:57:56;;;;;;;0.90;0.90;;;;;;;22.59;100.00;97249.91;4987231;28;20302;-67
2021/08/08 09:00:24;;;;;;;0.90;0.90;;;;;;;22.50;100.00;97230.09;4990941;28;20230;-66
2021/08/08 09:02:51;;;;;;;0.90;0.90;;;;;;;22.56;100.00;97237.91;4969708;28;20215;-67
2021/08/08 09:05:19;;;;;;;0.90;0.90;;;;;;;22.23;100.00;97193.63;4990980;28;20203;-67
2021/08/08 09:07:46;;;;;;;0.80;0.80;;;;;;;22.57;100.00;97259.25;4986835;28;20218;-67
2021/08/08 09:10:13;;;;;;;0.90;0.90;;;;;;;22.58;100.00;97256.72;4990616;28;20224;-67
2021/08/08 09:12:40;;;;;;;0.83;0.83;;;;;;;22.59;100.00;97255.03;4989833;28;20246;-67
2021/08/08 09:15:07;;;;;;;1.00;1.00;;;;;;;22.44;100.00;97232.47;4987106;28;20226;-67
2021/08/08 09:17:38;;;;;;;0.90;0.90;;;;;;;22.50;100.00;97245.44;4984545;28;20265;-67
2021/08/08 09:20:09;;;;;;;0.90;0.90;;;;;;;22.56;100.00;97248.13;4972208;28;20289;-66
2021/08/08 09:22:37;;;;;;;1.53;1.00;;;;;;;22.52;100.00;97250.59;4987055;28;20285;-67
2021/08/08 09:25:04;;;;;;;0.90;0.90;;;;;;;22.40;100.00;97232.38;4972913;28;20242;-67
2021/08/08 09:27:35;;;;;;;0.90;0.90;;;;;;;22.53;100.00;97258.31;4995258;28;20238;-66
2021/08/08 09:30:22;;;;;;;1.00;1.00;;;;;;;22.51;100.00;97257.44;4977490;28;20234;-66
2021/08/08 09:33:02;;;;;;;0.90;0.90;;;;;;;22.31;100.00;97227.94;4990078;28;20313;-66
2021/08/08 09:35:34;;;;;;;0.97;0.97;;;;;;;22.43;100.00;97252.94;4970566;28;20209;-67
2021/08/08 09:38:02;;;;;;;1.00;0.90;;;;;;;22.52;100.00;97266.84;4987048;28;20202;-67
2021/08/08 09:40:31;;;;;;;0.97;0.97;;;;;;;22.48;100.00;97254.78;4981759;28;20210;-67
2021/08/08 09:42:58;;;;;;;1.00;1.00;;;;;;;22.53;100.00;97258.31;4967285;28;20269;-66
2021/08/08 09:45:41;;;;;;;0.90;0.90;;;;;;;22.53;100.00;97262.59;4981979;28;20230;-67
2021/08/08 09:48:11;;;;;;;0.80;0.80;;;;;;;22.51;100.00;97246.31;4983916;28;20582;-67
2021/08/08 09:50:42;;;;;;;0.87;0.87;;;;;;;22.43;100.00;97237.56;4970466;28;20203;-67
2021/08/08 09:53:10;;;;;;;0.90;0.90;;;;;;;22.55;100.00;97250.66;4975376;28;20243;-66
2021/08/08 09:55:38;;;;;;;0.80;0.80;;;;;;;22.43;100.00;97230.75;4987664;28;20557;-66
2021/08/08 09:58:21;;;;;;;0.93;0.93;;;;;;;22.56;100.00;97253.25;4995478;28;20261;-67
2021/08/08 10:00:49;;;;;;;0.90;0.90;;;;;;;22.52;100.00;97246.34;4988421;28;20297;-67
2021/08/08 10:03:16;;;;;;;0.80;0.80;;;;;;;22.43;100.00;97246.13;4971491;28;20215;-67
2021/08/08 10:05:44;;;;;;;0.80;0.80;;;;;;;22.57;100.00;97264.38;4968741;28;20267;-67
2021/08/08 10:08:12;;;;;;;0.90;0.90;;;;;;;22.57;100.00;97261.81;4988184;28;20298;-67
2021/08/08 10:10:40;;;;;;;0.80;0.80;;;;;;;22.58;100.00;97266.09;4989431;28;20707;-67
2021/08/08 10:13:07;;;;;;;1.00;1.00;;;;;;;22.57;100.00;97260.13;4985512;28;20242;-66
2021/08/08 10:15:41;;;;;;;0.87;0.87;;;;;;;22.58;100.00;97261.84;4989979;28;20227;-67
2021/08/08 10:18:08;;;;;;;0.80;0.80;;;;;;;22.59;100.00;97260.16;4986378;28;20261;-67
2021/08/08 10:20:34;;;;;;;1.00;1.00;;;;;;;22.59;100.00;97265.28;4989472;28;20202;-67
2021/08/08 10:23:01;;;;;;;1.90;1.00;;;;;;;22.46;100.00;97238.50;4981635;28;20298;-67
2021/08/08 10:25:28;;;;;;;1.00;1.00;;;;;;;22.58;100.00;97260.97;4991750;28;20234;-67
2021/08/08 10:27:58;;;;;;;1.00;1.00;;;;;;;22.48;100.00;97241.97;4993714;28;20207;-67
2021/08/08 10:30:25;;;;;;;0.83;0.83;;;;;;;22.46;100.00;97242.75;4973418;28;20471;-67
2021/08/08 10:32:52;;;;;;;2.33;0.93;;;;;;;22.56;100.00;97260.09;4972440;28;20246;-67
2021/08/08 10:35:19;;;;;;;1.00;1.00;;;;;;;22.58;100.00;97266.09;4972093;28;20230;-67
2021/08/08 10:37:47;;;;;;;0.90;0.90;;;;;;;22.59;100.00;97257.59;4990278;28;20344;-67
2021/08/08 10:40:25;;;;;;;0.90;0.90;;;;;;;22.60;100.00;97261.88;4993418;28;20622;-67
2021/08/08 10:42:51;;;;;;;0.90;0.90;;;;;;;22.60;100.00;97256.75;4992840;28;20305;-67
2021/08/08 10:45:25;;;;;;;0.80;0.80;;;;;;;22.51;100.00;97244.63;4971105;28;20273;-67
2021/08/08 10:47:59;;;;;;;0.80;0.80;;;;;;;22.41;100.00;97224.75;4973186;28;20234;-67
2021/08/08 10:50:40;;;;;;;0.80;0.80;;;;;;;22.59;100.00;97250.75;4987730;28;20610;-67
2021/08/08 10:53:22;;;;;;;0.80;0.80;;;;;;;22.51;100.00;97233.53;4989575;28;20258;-65
2021/08/08 10:55:49;;;;;;;0.93;0.90;;;;;;;22.59;100.00;97249.91;5002753;28;20230;-67
2021/08/08 10:58:16;;;;;;;0.80;0.80;;;;;;;22.52;100.00;97233.56;4993062;28;20290;-67
2021/08/08 11:00:43;;;;;;;0.87;0.87;;;;;;;22.46;100.00;97222.28;4970744;28;20289;-67
2021/08/08 11:03:15;;;;;;;0.80;0.80;;;;;;;22.52;100.00;97238.69;4990158;28;20610;-65
2021/08/08 11:05:42;;;;;;;0.80;0.80;;;;;;;22.55;100.00;97246.41;4977118;28;20199;-67
2021/08/08 11:08:09;;;;;;;0.90;0.90;;;;;;;22.53;100.00;97245.50;4992663;28;20669;-67
2021/08/08 11:10:41;;;;;;;0.90;0.87;;;;;;;22.51;100.00;97249.75;4977317;28;20646;-66
2021/08/08 11:13:20;;;;;;;0.83;0.83;;;;;;;22.43;100.00;97235.00;4988249;28;20219;-63
2021/08/08 11:15:47;;;;;;;0.90;0.90;;;;;;;22.43;100.00;97235.88;4998591;28;20736;-67
2021/08/08 11:18:14;;;;;;;0.90;0.90;;;;;;;22.43;100.00;97238.44;4986394;28;20656;-66
2021/08/08 11:20:41;;;;;;;0.80;0.80;;;;;;;22.52;100.00;97237.81;4989521;28;20286;-68
2021/08/08 11:23:08;;;;;;;0.90;0.90;;;;;;;22.53;100.00;97231.88;4966948;28;20649;-65
2021/08/08 11:25:40;;;;;;;0.90;0.90;;;;;;;22.53;100.00;97227.59;4951214;28;20195;-67
2021/08/08 11:28:06;;;;;;;0.93;0.93;;;;;;;22.55;100.00;97227.63;4992862;28;20554;-67